createdAt,value
2022-08-26T00:01:53.090Z,2.45
2022-08-26T00:04:21.146Z,2.20
2022-08-26T00:06:48.180Z,3.03
2022-08-26T00:09:16.090Z,2.33
2022-08-26T00:11:47.315Z,2.30
2022-08-26T00:14:15.779Z,2.80
2022-08-26T00:16:48.185Z,2.47
2022-08-26T00:19:20.586Z,2.50
2022-08-26T00:21:48.731Z,2.47
2022-08-26T00:24:17.882Z,2.65
2022-08-26T00:26:45.094Z,2.60
2022-08-26T00:29:12.278Z,3.25
2022-08-26T00:31:40.020Z,2.30
2022-08-26T00:34:09.592Z,2.58
2022-08-26T00:36:39.516Z,2.53
2022-08-26T00:39:08.212Z,2.40
2022-08-26T00:41:38.716Z,2.05
2022-08-26T00:44:06.634Z,2.13
2022-08-26T00:46:46.963Z,2.10
2022-08-26T00:49:16.894Z,2.25
2022-08-26T00:51:53.450Z,2.10
2022-08-26T00:54:23.112Z,2.40
2022-08-26T00:56:50.467Z,2.17
2022-08-26T00:59:18.377Z,2.15
2022-08-26T01:01:45.957Z,2.33
2022-08-26T01:04:18.009Z,2.30
2022-08-26T01:06:45.001Z,2.42
2022-08-26T01:09:12.365Z,2.30
2022-08-26T01:11:39.966Z,2.40
2022-08-26T01:14:08.500Z,2.20
2022-08-26T01:16:37.030Z,2.05
2022-08-26T01:19:18.436Z,2.40
2022-08-26T01:21:53.551Z,2.20
2022-08-26T01:24:20.559Z,2.42
2022-08-26T01:26:48.686Z,2.30
2022-08-26T01:29:19.130Z,2.08
2022-08-26T01:31:52.665Z,2.08
2022-08-26T01:34:36.034Z,2.33
2022-08-26T01:37:21.723Z,2.25
2022-08-26T01:39:51.149Z,2.15
2022-08-26T01:42:21.089Z,2.35
2022-08-26T01:44:52.905Z,2.00
2022-08-26T01:47:22.985Z,2.28
2022-08-26T01:49:53.718Z,2.53
2022-08-26T01:52:27.615Z,2.20
2022-08-26T01:54:56.889Z,2.25
2022-08-26T01:57:25.289Z,2.35
2022-08-26T01:59:54.701Z,2.00
2022-08-26T02:02:22.852Z,2.10
2022-08-26T02:04:58.235Z,2.40
2022-08-26T02:07:27.092Z,2.50
2022-08-26T02:09:54.059Z,2.28
2022-08-26T02:12:21.588Z,2.17
2022-08-26T02:14:54.154Z,2.30
2022-08-26T02:17:29.789Z,2.65
2022-08-26T02:19:58.525Z,2.40
2022-08-26T02:22:25.492Z,2.33
2022-08-26T02:25:06.892Z,2.30
2022-08-26T02:27:35.497Z,2.47
2022-08-26T02:30:15.204Z,2.28
2022-08-26T02:32:44.186Z,2.45
2022-08-26T02:35:13.795Z,2.30
2022-08-26T02:37:47.378Z,2.47
2022-08-26T02:40:19.039Z,2.60
2022-08-26T02:42:46.224Z,2.50
2022-08-26T02:45:13.146Z,2.33
2022-08-26T02:47:43.554Z,2.42
2022-08-26T02:50:10.922Z,2.10
2022-08-26T02:52:37.849Z,2.45
2022-08-26T02:55:05.557Z,3.15
2022-08-26T02:57:32.307Z,2.20
2022-08-26T03:00:00.812Z,2.08
2022-08-26T03:02:28.656Z,2.45
2022-08-26T03:04:57.693Z,2.38
2022-08-26T03:07:29.320Z,2.33
2022-08-26T03:09:57.093Z,2.30
2022-08-26T03:12:24.250Z,2.45
2022-08-26T03:14:53.055Z,2.30
2022-08-26T03:17:21.084Z,2.15
2022-08-26T03:19:51.779Z,2.40
2022-08-26T03:22:21.128Z,2.50
2022-08-26T03:24:47.933Z,2.55
2022-08-26T03:27:15.524Z,2.15
2022-08-26T03:30:02.671Z,2.70
2022-08-26T03:32:29.440Z,2.30
2022-08-26T03:34:57.551Z,2.40
2022-08-26T03:37:25.197Z,2.58
2022-08-26T03:39:52.807Z,2.22
2022-08-26T03:42:21.454Z,2.50
2022-08-26T03:44:48.824Z,2.63
2022-08-26T03:47:15.885Z,2.10
2022-08-26T03:49:42.943Z,2.80
2022-08-26T03:52:10.453Z,2.20
2022-08-26T03:54:37.420Z,2.58
2022-08-26T03:57:04.407Z,2.45
2022-08-26T03:59:32.089Z,2.40
2022-08-26T04:01:59.021Z,2.13
2022-08-26T04:04:25.895Z,2.30
2022-08-26T04:06:57.359Z,2.30
2022-08-26T04:09:25.442Z,2.40
2022-08-26T04:11:52.177Z,2.22
2022-08-26T04:14:22.238Z,2.30
2022-08-26T04:16:50.330Z,2.47
2022-08-26T04:19:19.436Z,3.67
2022-08-26T04:21:47.860Z,3.42
2022-08-26T04:24:16.368Z,4.03
2022-08-26T04:26:44.893Z,4.95
2022-08-26T04:29:21.591Z,4.63
2022-08-26T04:31:48.679Z,5.28
2022-08-26T04:34:16.630Z,5.22
2022-08-26T04:36:44.557Z,5.18
2022-08-26T04:39:14.914Z,4.60
2022-08-26T04:41:41.720Z,5.40
2022-08-26T04:44:08.651Z,5.50
2022-08-26T04:46:35.808Z,5.15
2022-08-26T04:49:08.320Z,4.93
2022-08-26T04:51:36.052Z,5.07
2022-08-26T04:54:06.809Z,5.85
2022-08-26T04:56:37.205Z,4.93
2022-08-26T04:59:07.227Z,4.88
2022-08-26T05:01:39.574Z,5.05
2022-08-26T05:04:08.173Z,5.35
2022-08-26T05:06:37.065Z,5.93
2022-08-26T05:09:04.357Z,5.25
2022-08-26T05:11:31.302Z,5.03
2022-08-26T05:14:02.365Z,5.45
2022-08-26T05:16:30.306Z,5.47
2022-08-26T05:18:57.533Z,5.72
2022-08-26T05:21:26.891Z,5.00
2022-08-26T05:23:57.001Z,4.68
2022-08-26T05:26:26.535Z,5.68
2022-08-26T05:28:54.750Z,5.55
2022-08-26T05:31:26.647Z,4.40
2022-08-26T05:33:54.146Z,5.13
2022-08-26T05:36:23.763Z,4.50
2022-08-26T05:38:54.212Z,5.15
2022-08-26T05:41:36.219Z,4.28
2022-08-26T05:44:07.374Z,4.40
2022-08-26T05:46:35.335Z,4.38
2022-08-26T05:49:02.732Z,4.43
2022-08-26T05:51:30.893Z,4.70
2022-08-26T05:53:58.339Z,4.95
2022-08-26T05:56:27.521Z,3.92
2022-08-26T05:58:56.275Z,4.28
2022-08-26T06:01:28.171Z,4.70
2022-08-26T06:04:00.718Z,4.38
2022-08-26T06:06:34.599Z,5.20
2022-08-26T06:09:04.701Z,3.92
2022-08-26T06:11:32.942Z,4.95
2022-08-26T06:14:03.884Z,4.38
2022-08-26T06:16:33.443Z,5.10
2022-08-26T06:19:03.032Z,6.03
2022-08-26T06:21:35.369Z,7.05
2022-08-26T06:24:26.887Z,7.57
2022-08-26T06:27:01.089Z,7.25
2022-08-26T06:29:28.891Z,7.63
2022-08-26T06:31:57.172Z,6.80
2022-08-26T06:34:29.805Z,7.20
2022-08-26T06:36:59.709Z,7.45
2022-08-26T06:39:28.042Z,8.15
2022-08-26T06:41:58.864Z,9.45
2022-08-26T06:44:25.801Z,9.65
2022-08-26T06:46:53.511Z,8.80
2022-08-26T06:49:26.771Z,9.52
2022-08-26T06:51:57.967Z,9.18
2022-08-26T06:54:27.409Z,9.77
2022-08-26T06:56:56.024Z,8.93
2022-08-26T06:59:23.082Z,7.97
2022-08-26T07:01:50.006Z,9.30
2022-08-26T07:04:21.782Z,9.20
2022-08-26T07:06:52.331Z,8.93
2022-08-26T07:09:24.119Z,8.75
2022-08-26T07:11:51.929Z,7.85
2022-08-26T07:14:21.153Z,8.85
2022-08-26T07:16:51.271Z,9.38
2022-08-26T07:19:31.129Z,8.23
2022-08-26T07:22:04.022Z,7.55
2022-08-26T07:24:33.634Z,7.30
2022-08-26T07:27:05.638Z,8.07
2022-08-26T07:29:33.474Z,8.63
2022-08-26T07:32:00.466Z,8.82
2022-08-26T07:34:27.548Z,8.13
2022-08-26T07:36:55.254Z,8.63
2022-08-26T07:39:24.022Z,8.38
2022-08-26T07:41:52.056Z,8.25
2022-08-26T07:44:19.406Z,8.43
2022-08-26T07:46:53.248Z,7.75
2022-08-26T07:49:22.755Z,8.07
2022-08-26T07:51:50.812Z,8.80
2022-08-26T07:54:17.929Z,8.18
2022-08-26T07:56:46.219Z,8.50
2022-08-26T07:59:13.651Z,9.35
2022-08-26T08:01:41.429Z,8.75
2022-08-26T08:04:13.889Z,8.85
2022-08-26T08:06:41.562Z,8.68
2022-08-26T08:09:12.697Z,9.52
2022-08-26T08:11:39.866Z,7.57
2022-08-26T08:14:08.333Z,7.75
2022-08-26T08:16:37.289Z,8.32
2022-08-26T08:19:05.906Z,9.07
2022-08-26T08:21:32.825Z,8.38
2022-08-26T08:24:00.892Z,8.50
2022-08-26T08:26:28.064Z,8.90
2022-08-26T08:28:56.397Z,8.32
2022-08-26T08:31:52.434Z,7.88
2022-08-26T08:34:13.598Z,7.88
2022-08-26T08:36:40.424Z,7.43
2022-08-26T08:39:08.505Z,7.40
2022-08-26T08:41:41.283Z,7.47
2022-08-26T08:44:13.881Z,7.80
2022-08-26T08:46:42.508Z,8.07
2022-08-26T08:49:11.056Z,6.20
2022-08-26T08:52:02.624Z,6.85
2022-08-26T08:54:32.131Z,6.97
2022-08-26T08:57:13.061Z,6.18
2022-08-26T08:59:52.035Z,6.57
2022-08-26T09:02:35.094Z,6.80
2022-08-26T09:05:22.953Z,6.50
2022-08-26T09:07:55.838Z,6.00
2022-08-26T09:10:25.430Z,6.18
2022-08-26T09:12:52.761Z,6.30
2022-08-26T09:15:28.587Z,6.78
2022-08-26T09:18:28.293Z,6.88
2022-08-26T09:21:05.019Z,5.20
2022-08-26T09:23:35.934Z,5.78
2022-08-26T09:26:20.951Z,6.20
2022-08-26T09:29:01.420Z,6.03
2022-08-26T09:31:31.479Z,7.10
2022-08-26T09:34:17.795Z,6.38
2022-08-26T09:36:51.368Z,6.78
2022-08-26T09:39:29.062Z,6.50
2022-08-26T09:42:22.350Z,6.10
2022-08-26T09:44:59.621Z,5.68
2022-08-26T09:47:53.229Z,6.43
2022-08-26T09:50:31.760Z,6.20
2022-08-26T09:53:20.876Z,5.82
2022-08-26T09:56:11.247Z,6.13
2022-08-26T09:58:41.921Z,6.53
2022-08-26T10:01:36.118Z,6.45
2022-08-26T10:04:12.251Z,5.78
2022-08-26T10:06:56.183Z,5.70
2022-08-26T10:09:25.693Z,6.00
2022-08-26T10:11:56.772Z,5.57
2022-08-26T10:14:51.356Z,6.05
2022-08-26T10:17:31.598Z,5.63
2022-08-26T10:20:16.803Z,5.90
2022-08-26T10:23:24.344Z,6.50
2022-08-26T10:26:08.839Z,6.15
2022-08-26T10:29:07.305Z,5.70
2022-08-26T10:31:46.773Z,5.53
2022-08-26T10:34:17.125Z,6.03
2022-08-26T10:37:15.927Z,6.45
2022-08-26T10:40:05.401Z,6.28
2022-08-26T10:42:38.006Z,5.72
2022-08-26T10:45:15.067Z,5.45
2022-08-26T10:48:02.893Z,4.97
2022-08-26T10:50:38.841Z,6.25
2022-08-26T10:53:25.333Z,5.32
2022-08-26T10:56:06.371Z,5.03
2022-08-26T10:59:13.153Z,5.20
2022-08-26T11:02:00.889Z,6.05
2022-08-26T11:04:48.703Z,5.43
2022-08-26T11:07:46.239Z,6.13
2022-08-26T11:10:19.300Z,5.28
2022-08-26T11:12:56.991Z,5.03
2022-08-26T11:15:28.091Z,5.45
2022-08-26T11:18:01.408Z,5.50
2022-08-26T11:20:34.159Z,4.65
2022-08-26T11:23:13.622Z,4.97
2022-08-26T11:26:05.234Z,5.40
2022-08-26T11:28:44.243Z,4.78
2022-08-26T11:31:18.595Z,4.70
2022-08-26T11:33:48.823Z,4.63
2022-08-26T11:36:41.931Z,5.10
2022-08-26T11:39:25.867Z,4.15
2022-08-26T11:41:55.536Z,4.80
2022-08-26T11:44:29.521Z,4.20
2022-08-26T11:47:01.155Z,4.22
2022-08-26T11:49:29.857Z,4.15
2022-08-26T11:52:28.911Z,4.22
2022-08-26T11:55:09.296Z,4.18
2022-08-26T11:57:43.282Z,4.38
2022-08-26T12:00:15.873Z,3.70
2022-08-26T12:02:47.686Z,4.28
2022-08-26T12:05:21.236Z,5.07
2022-08-26T12:07:53.023Z,4.13
2022-08-26T12:10:33.563Z,4.95
2022-08-26T12:13:02.114Z,4.00
2022-08-26T12:15:31.635Z,4.25
2022-08-26T12:18:15.798Z,4.00
2022-08-26T12:20:48.867Z,4.20
2022-08-26T12:23:35.141Z,3.85
2022-08-26T12:26:28.518Z,4.10
2022-08-26T12:28:58.414Z,3.70
2022-08-26T12:31:28.074Z,3.90
2022-08-26T12:33:57.043Z,3.72
2022-08-26T12:36:35.012Z,4.20
2022-08-26T12:39:24.785Z,4.45
2022-08-26T12:41:54.707Z,13.27
2022-08-26T12:44:53.191Z,4.05
2022-08-26T12:47:43.121Z,4.07
2022-08-26T12:50:17.060Z,4.00
2022-08-26T12:52:57.611Z,4.18
2022-08-26T12:55:24.526Z,4.05
2022-08-26T12:58:09.349Z,4.13
2022-08-26T13:00:40.192Z,4.03
2022-08-26T13:03:34.958Z,3.80
2022-08-26T13:06:22.878Z,3.95
2022-08-26T13:09:07.674Z,4.30
2022-08-26T13:11:35.650Z,4.80
2022-08-26T13:14:11.127Z,7.70
2022-08-26T13:16:39.343Z,10.85
2022-08-26T13:19:10.589Z,8.57
2022-08-26T13:21:43.824Z,3.85
2022-08-26T13:24:17.244Z,3.70
2022-08-26T13:26:45.932Z,4.28
2022-08-26T13:29:13.289Z,20.98
2022-08-26T13:31:42.547Z,74.13
2022-08-26T13:34:21.141Z,10.73
2022-08-26T13:36:50.401Z,24.30
2022-08-26T13:39:17.921Z,11.15
2022-08-26T13:41:44.838Z,10.57
2022-08-26T13:44:12.242Z,23.40
2022-08-26T13:46:39.330Z,72.90
2022-08-26T13:49:06.655Z,175.10
2022-08-26T13:51:34.063Z,10.20
2022-08-26T13:54:00.935Z,58.95
2022-08-26T13:56:32.414Z,231.32
2022-08-26T13:59:01.620Z,242.15
2022-08-26T14:01:30.884Z,81.22
2022-08-26T14:03:58.278Z,165.38
2022-08-26T14:06:25.251Z,71.93
2022-08-26T14:08:52.108Z,146.50
2022-08-26T14:11:19.435Z,462.85
2022-08-26T14:13:46.226Z,123.00
2022-08-26T14:16:22.496Z,210.30
2022-08-26T14:18:50.880Z,259.42
2022-08-26T14:21:18.152Z,63.03
2022-08-26T14:23:45.023Z,88.55
2022-08-26T14:26:11.790Z,193.68
2022-08-26T14:28:55.239Z,141.45
2022-08-26T14:31:23.768Z,197.77
2022-08-26T14:33:50.786Z,183.90
2022-08-26T14:36:31.360Z,11.38
2022-08-26T14:39:05.055Z,64.75
2022-08-26T14:41:33.509Z,62.50
2022-08-26T14:44:11.210Z,83.30
2022-08-26T14:46:59.910Z,135.25
2022-08-26T14:49:27.417Z,321.60
2022-08-26T14:51:54.642Z,139.77
2022-08-26T14:54:21.646Z,140.55
2022-08-26T14:57:01.729Z,119.72
2022-08-26T14:59:34.242Z,264.23
2022-08-26T15:02:02.091Z,239.70
2022-08-26T15:04:29.217Z,242.88
2022-08-26T15:06:58.648Z,352.27
2022-08-26T15:09:26.427Z,573.35
2022-08-26T15:11:53.700Z,33.40
2022-08-26T15:14:21.850Z,146.13
2022-08-26T15:16:50.977Z,363.38
2022-08-26T15:19:18.602Z,99.18
2022-08-26T15:21:47.094Z,453.23
2022-08-26T15:24:15.734Z,814.83
2022-08-26T15:26:43.400Z,168.27
2022-08-26T15:29:10.295Z,100.32
2022-08-26T15:31:37.178Z,255.93
2022-08-26T15:34:08.527Z,262.52
2022-08-26T15:36:37.868Z,264.58
2022-08-26T15:39:06.841Z,321.98
2022-08-26T15:41:34.996Z,73.55
2022-08-26T15:44:03.429Z,189.13
2022-08-26T15:46:32.011Z,250.32
2022-08-26T15:48:59.148Z,345.80
2022-08-26T15:51:35.795Z,416.95
2022-08-26T15:54:13.433Z,525.90
2022-08-26T15:56:40.235Z,482.23
2022-08-26T15:59:08.285Z,308.38
2022-08-26T16:01:36.113Z,344.20
2022-08-26T16:04:05.165Z,344.50
2022-08-26T16:06:39.056Z,205.25
2022-08-26T16:09:07.577Z,570.25
2022-08-26T16:11:35.961Z,588.03
2022-08-26T16:14:04.454Z,546.58
2022-08-26T16:16:32.151Z,297.58
2022-08-26T16:18:59.893Z,347.20
2022-08-26T16:21:28.667Z,828.58
2022-08-26T16:23:56.496Z,813.15
2022-08-26T16:26:32.876Z,815.67
2022-08-26T16:29:02.501Z,813.95
2022-08-26T16:31:29.462Z,948.60
2022-08-26T16:33:56.511Z,843.80
2022-08-26T16:36:23.682Z,947.72
2022-08-26T16:38:55.151Z,955.00
2022-08-26T16:41:24.504Z,833.25
2022-08-26T16:43:51.506Z,831.28
2022-08-26T16:46:18.928Z,959.70
2022-08-26T16:48:45.917Z,961.10
2022-08-26T16:51:18.776Z,953.13
2022-08-26T16:53:46.457Z,832.05
2022-08-26T16:56:14.710Z,949.70
2022-08-26T16:58:42.277Z,949.45
2022-08-26T17:01:09.306Z,837.35
2022-08-26T17:03:36.610Z,912.65
2022-08-26T17:06:03.757Z,844.10
2022-08-26T17:08:30.622Z,833.30
2022-08-26T17:11:00.490Z,948.40
2022-08-26T17:13:35.700Z,941.95
2022-08-26T17:16:07.489Z,795.72
2022-08-26T17:18:35.705Z,944.95
2022-08-26T17:21:05.344Z,948.13
2022-08-26T17:23:32.877Z,856.65
2022-08-26T17:25:59.681Z,858.35
2022-08-26T17:28:26.521Z,947.92
2022-08-26T17:30:55.200Z,945.50
2022-08-26T17:33:24.705Z,957.67
2022-08-26T17:35:53.046Z,939.28
2022-08-26T17:38:21.077Z,839.30
2022-08-26T17:40:48.096Z,959.72
2022-08-26T17:43:14.912Z,840.13
2022-08-26T17:45:42.172Z,838.65
2022-08-26T17:48:11.069Z,857.83
2022-08-26T17:50:41.264Z,851.65
2022-08-26T17:53:08.528Z,843.10
2022-08-26T17:55:45.250Z,849.03
2022-08-26T17:58:12.135Z,939.83
2022-08-26T18:00:47.407Z,836.63
2022-08-26T18:03:14.893Z,937.83
2022-08-26T18:05:42.600Z,819.35
2022-08-26T18:08:10.232Z,822.92
2022-08-26T18:10:37.015Z,942.60
2022-08-26T18:13:03.835Z,951.55
2022-08-26T18:15:30.691Z,826.55
2022-08-26T18:17:57.522Z,823.08
2022-08-26T18:20:24.347Z,828.78
2022-08-26T18:22:51.166Z,945.95
2022-08-26T18:25:18.279Z,825.72
2022-08-26T18:27:45.271Z,935.60
2022-08-26T18:30:18.255Z,936.47
2022-08-26T18:32:45.044Z,938.08
2022-08-26T18:35:12.234Z,936.13
2022-08-26T18:37:39.427Z,845.88
2022-08-26T18:40:09.090Z,821.38
2022-08-26T18:42:36.600Z,929.50
2022-08-26T18:45:06.484Z,815.80
2022-08-26T18:47:33.581Z,830.80
2022-08-26T18:50:01.433Z,813.42
2022-08-26T18:52:28.313Z,825.58
2022-08-26T18:54:55.405Z,829.30
2022-08-26T18:57:22.263Z,938.35
2022-08-26T18:59:49.085Z,945.25
2022-08-26T19:02:16.019Z,821.75
2022-08-26T19:04:42.921Z,820.50
2022-08-26T19:07:11.197Z,935.78
2022-08-26T19:09:38.018Z,931.33
2022-08-26T19:12:05.257Z,946.08
2022-08-26T19:14:32.540Z,934.45
2022-08-26T19:17:00.499Z,825.42
2022-08-26T19:19:27.447Z,932.15
2022-08-26T19:21:55.351Z,945.92
2022-08-26T19:24:23.136Z,954.28
2022-08-26T19:29:27.889Z,930.75
2022-08-26T19:31:54.834Z,942.60
2022-08-26T19:34:21.753Z,849.45
2022-08-26T19:36:49.310Z,935.35
2022-08-26T19:39:16.306Z,931.20
2022-08-26T19:41:43.121Z,826.35
2022-08-26T19:44:13.071Z,935.97
2022-08-26T19:46:40.417Z,840.42
2022-08-26T19:49:07.743Z,928.63
2022-08-26T19:51:36.386Z,934.05
2022-08-26T19:54:04.327Z,940.80
2022-08-26T19:56:31.437Z,830.33
2022-08-26T19:58:58.372Z,936.67
2022-08-26T20:01:25.819Z,945.75
2022-08-26T20:03:53.038Z,826.10
2022-08-26T20:06:20.318Z,843.65
2022-08-26T20:08:47.575Z,944.63
2022-08-26T20:11:18.688Z,830.45
2022-08-26T20:13:46.917Z,826.92
2022-08-26T20:16:15.361Z,946.00
2022-08-26T20:19:02.822Z,833.53
2022-08-26T20:21:33.201Z,846.65
2022-08-26T20:24:05.912Z,832.25
2022-08-26T20:26:35.205Z,821.85
2022-08-26T20:29:02.916Z,919.72
2022-08-26T20:31:29.869Z,899.67
2022-08-26T20:33:57.432Z,824.35
2022-08-26T20:36:26.943Z,926.00
2022-08-26T20:38:54.664Z,827.20
2022-08-26T20:41:22.551Z,810.33
2022-08-26T20:43:49.319Z,910.47
2022-08-26T20:46:18.790Z,804.47
2022-08-26T20:48:47.390Z,795.30
2022-08-26T20:51:15.325Z,821.65
2022-08-26T20:53:42.600Z,792.35
2022-08-26T20:56:11.229Z,914.67
2022-08-26T20:58:38.848Z,789.42
2022-08-26T21:01:08.062Z,634.33
2022-08-26T21:03:36.430Z,710.00
2022-08-26T21:06:03.924Z,786.15
2022-08-26T21:08:32.707Z,571.65
2022-08-26T21:11:00.601Z,801.15
2022-08-26T21:13:30.750Z,798.97
2022-08-26T21:16:02.995Z,843.20
2022-08-26T21:18:30.067Z,695.80
2022-08-26T21:20:57.345Z,490.52
2022-08-26T21:23:28.691Z,616.13
2022-08-26T21:25:56.229Z,713.55
2022-08-26T21:28:23.437Z,645.85
2022-08-26T21:30:50.274Z,846.67
2022-08-26T21:33:17.087Z,799.50
2022-08-26T21:35:54.020Z,901.15
2022-08-26T21:38:21.258Z,684.53
2022-08-26T21:41:12.850Z,765.42
2022-08-26T21:43:41.631Z,905.30
2022-08-26T21:46:14.360Z,814.90
2022-08-26T21:48:50.557Z,750.20
2022-08-26T21:51:19.856Z,694.42
2022-08-26T21:53:47.348Z,571.60
2022-08-26T21:56:17.812Z,715.70
2022-08-26T21:58:45.060Z,622.53
2022-08-26T22:01:14.409Z,595.53
2022-08-26T22:03:47.059Z,907.00
2022-08-26T22:06:17.990Z,730.20
2022-08-26T22:08:44.769Z,674.83
2022-08-26T22:11:12.180Z,581.83
2022-08-26T22:13:40.838Z,450.02
2022-08-26T22:16:08.334Z,435.10
2022-08-26T22:18:36.192Z,421.20
2022-08-26T22:21:10.179Z,609.42
2022-08-26T22:23:38.322Z,587.30
2022-08-26T22:26:09.308Z,617.17
2022-08-26T22:28:36.614Z,586.58
2022-08-26T22:31:03.469Z,340.70
2022-08-26T22:33:30.248Z,356.50
2022-08-26T22:35:57.134Z,306.88
2022-08-26T22:38:24.092Z,608.70
2022-08-26T22:40:57.402Z,612.85
2022-08-26T22:43:25.215Z,347.88
2022-08-26T22:45:53.072Z,426.40
2022-08-26T22:48:26.845Z,344.27
2022-08-26T22:51:00.211Z,257.00
2022-08-26T22:53:27.381Z,251.00
2022-08-26T22:55:54.419Z,181.23
2022-08-26T22:58:21.719Z,219.50
2022-08-26T23:00:57.942Z,268.23
2022-08-26T23:03:26.964Z,351.90
2022-08-26T23:05:55.604Z,290.10
2022-08-26T23:08:23.521Z,294.27
2022-08-26T23:10:51.329Z,503.63
2022-08-26T23:13:18.301Z,387.00
2022-08-26T23:15:45.481Z,422.98
2022-08-26T23:18:13.710Z,423.73
2022-08-26T23:20:41.140Z,404.42
2022-08-26T23:23:07.996Z,442.42
2022-08-26T23:25:35.363Z,442.73
2022-08-26T23:28:02.791Z,393.90
2022-08-26T23:30:31.940Z,375.75
2022-08-26T23:32:59.510Z,334.15
2022-08-26T23:35:26.932Z,339.58
2022-08-26T23:37:54.269Z,378.63
2022-08-26T23:40:25.504Z,517.28
2022-08-26T23:42:54.573Z,464.13
2022-08-26T23:45:22.071Z,391.52
2022-08-26T23:47:50.527Z,356.27
2022-08-26T23:50:19.447Z,315.35
2022-08-26T23:53:05.388Z,352.00
2022-08-26T23:55:37.883Z,236.32
2022-08-26T23:58:05.876Z,278.33
